Terminal Aerodrome Forecast
Issued by NWS

Current Version | Previous Version | Text Only | Print | Product List | Glossary On
Versions: 1 2 3 4 5 6 7 8 9 10 11 12 13
000
FTUS44 KLIX 232300
TAFMSY
TAF
KMSY 232321Z 2400/2424 VRB04KT P6SM FEW040
     FM240200 17004KT P6SM SKC
     FM240800 18003KT P6SM SCT020
      TEMPO 2410/2413 5SM BR
     FM241430 18008KT P6SM SCT030=

USA.gov is the U.S. government's official web portal to all federal, state and local government web resources and services.